Time;durP1;ratioP1;P1;durP2;ratioP2;P2;SDS_P1;SDS_P2;PMS_P1;PMS_P2;Temp;Humidity;BMP_temperature;BMP_pressure;BME280_temperature;BME280_humidity;BME280_pressure;Samples;Min_cycle;Max_cycle;Signal;HPM_P1;HPM_P2
2021/07/11 00:00:13;;;;;;;6.53;5.90;;;;;;;16.83;100.00;99309.44;5115153;28;20185;-74
2021/07/11 00:02:40;;;;;;;7.50;6.18;;;;;;;17.00;100.00;99319.66;5110148;28;20187;-75
2021/07/11 00:05:09;;;;;;;9.00;7.05;;;;;;;16.93;100.00;99309.47;5114910;28;20195;-74
2021/07/11 00:07:36;;;;;;;6.22;5.63;;;;;;;17.06;100.00;99316.41;5114623;28;20196;-74
2021/07/11 00:10:05;;;;;;;7.38;6.65;;;;;;;16.99;100.00;99326.09;5114569;28;20223;-74
2021/07/11 00:12:33;;;;;;;6.43;5.75;;;;;;;17.03;100.00;99323.97;5114704;28;20199;-75
2021/07/11 00:15:00;;;;;;;6.22;5.63;;;;;;;17.01;100.00;99325.97;5114442;28;20183;-73
2021/07/11 00:17:26;;;;;;;8.90;6.78;;;;;;;17.25;100.00;99318.34;5114867;28;20196;-74
2021/07/11 00:19:55;;;;;;;6.25;5.22;;;;;;;17.12;100.00;99319.56;5114761;28;20580;-74
2021/07/11 00:22:21;;;;;;;5.95;5.35;;;;;;;16.96;100.00;99318.22;5114426;28;20556;-74
2021/07/11 00:24:50;;;;;;;6.50;5.80;;;;;;;16.85;100.00;99330.06;5114498;28;20195;-73
2021/07/11 00:27:17;;;;;;;9.68;6.10;;;;;;;16.92;100.00;99326.81;5114430;28;20188;-73
2021/07/11 00:29:45;;;;;;;7.32;6.10;;;;;;;17.02;100.00;99325.81;5114055;28;20187;-73
2021/07/11 00:32:12;;;;;;;7.97;6.88;;;;;;;17.01;100.00;99328.69;5114162;28;20208;-74
2021/07/11 00:34:38;;;;;;;9.32;7.78;;;;;;;17.07;100.00;99334.44;5114489;28;20517;-74
2021/07/11 00:37:05;;;;;;;7.25;6.25;;;;;;;17.12;100.00;99335.88;5114074;28;20199;-72
2021/07/11 00:39:31;;;;;;;6.60;5.95;;;;;;;17.06;100.00;99343.59;5114294;28;20191;-73
2021/07/11 00:41:58;;;;;;;10.02;6.22;;;;;;;17.19;100.00;99331.63;5113910;28;20203;-74
2021/07/11 00:44:25;;;;;;;8.07;6.10;;;;;;;17.19;100.00;99337.94;5113554;28;20274;-73
2021/07/11 00:46:53;;;;;;;7.35;6.35;;;;;;;16.94;100.00;99344.69;5113858;28;20549;-74
2021/07/11 00:49:20;;;;;;;7.85;6.60;;;;;;;17.07;100.00;99341.72;5113893;28;20201;-74
2021/07/11 00:51:47;;;;;;;8.00;5.97;;;;;;;17.16;100.00;99342.78;5114344;28;20204;-73
2021/07/11 00:54:14;;;;;;;7.75;6.03;;;;;;;17.18;100.00;99341.63;5113477;28;20231;-74
2021/07/11 00:56:44;;;;;;;8.95;6.80;;;;;;;16.97;100.00;99340.84;5112660;28;20192;-73
2021/07/11 00:59:10;;;;;;;7.00;6.30;;;;;;;17.04;100.00;99331.97;5114108;28;20543;-73
2021/07/11 01:01:39;;;;;;;7.53;6.82;;;;;;;17.00;100.00;99333.25;5113121;28;20205;-73
2021/07/11 01:04:11;;;;;;;8.88;6.30;;;;;;;16.99;100.00;99330.69;5113599;28;20228;-74
2021/07/11 01:06:40;;;;;;;9.07;6.25;;;;;;;17.05;100.00;99322.00;5093797;28;20720;-74
2021/07/11 01:09:11;;;;;;;9.10;7.50;;;;;;;17.05;100.00;99322.00;5106470;28;20196;-72
2021/07/11 01:11:44;;;;;;;7.78;5.72;;;;;;;17.08;100.00;99319.84;5112764;28;20319;-75
2021/07/11 01:14:11;;;;;;;6.28;5.72;;;;;;;16.97;100.00;99327.25;5113415;28;20233;-74
2021/07/11 01:16:39;;;;;;;6.20;5.70;;;;;;;16.91;100.00;99333.22;5113400;28;20194;-73
2021/07/11 01:19:13;;;;;;;7.53;6.78;;;;;;;16.92;100.00;99333.09;5113470;28;20691;-72
2021/07/11 01:21:51;;;;;;;10.43;5.80;;;;;;;17.05;100.00;99341.88;5113729;28;20315;-74
2021/07/11 01:24:23;;;;;;;7.53;6.32;;;;;;;17.24;100.00;99345.69;5113576;28;20296;-73
2021/07/11 01:26:52;;;;;;;5.80;5.20;;;;;;;17.37;100.00;99356.31;5113153;28;20181;-73
2021/07/11 01:29:21;;;;;;;7.18;5.47;;;;;;;17.25;100.00;99364.59;5103240;28;20199;-73
2021/07/11 01:31:47;;;;;;;6.00;5.35;;;;;;;17.26;100.00;99360.84;5112713;28;20242;-74
2021/07/11 01:34:15;;;;;;;5.47;4.88;;;;;;;17.32;100.00;99358.56;5113525;28;20194;-74
2021/07/11 01:36:42;;;;;;;9.45;5.70;;;;;;;17.23;100.00;99355.69;5113262;28;20189;-74
2021/07/11 01:39:10;;;;;;;7.05;5.30;;;;;;;17.26;100.00;99355.41;5112784;28;20646;-74
2021/07/11 01:41:38;;;;;;;6.90;6.15;;;;;;;17.26;100.00;99347.25;5112698;28;20181;-73
2021/07/11 01:44:07;;;;;;;9.27;6.20;;;;;;;17.26;100.00;99346.41;5112915;28;20207;-73
2021/07/11 01:46:35;;;;;;;9.20;5.90;;;;;;;17.35;100.00;99342.00;5112825;28;20283;-73
2021/07/11 01:49:03;;;;;;;6.53;5.93;;;;;;;17.32;100.00;99353.13;5112808;28;20625;-73
2021/07/11 01:51:31;;;;;;;6.03;5.53;;;;;;;17.43;100.00;99353.88;5112215;28;20212;-74
2021/07/11 01:53:58;;;;;;;5.70;5.10;;;;;;;17.42;100.00;99359.47;5112953;28;20278;-72
2021/07/11 01:56:25;;;;;;;7.30;5.30;;;;;;;17.42;100.00;99363.06;5113165;28;20538;-74
2021/07/11 01:58:52;;;;;;;5.65;5.07;;;;;;;17.50;100.00;99356.91;5112824;28;20626;-73
2021/07/11 02:01:21;;;;;;;5.05;4.65;;;;;;;17.40;100.00;99359.63;5112602;28;20762;-74
2021/07/11 02:03:47;;;;;;;8.32;4.78;;;;;;;17.18;100.00;99360.66;5112386;28;20321;-72
2021/07/11 02:06:15;;;;;;;6.18;5.57;;;;;;;17.16;100.00;99370.81;5113012;28;20185;-75
2021/07/11 02:08:42;;;;;;;6.30;5.15;;;;;;;17.09;100.00;99369.66;5112165;28;20270;-74
2021/07/11 02:11:10;;;;;;;9.85;5.07;;;;;;;17.10;100.00;99365.94;5112295;28;20742;-73
2021/07/11 02:13:46;;;;;;;6.35;5.00;;;;;;;17.06;100.00;99369.94;5112350;28;20184;-75
2021/07/11 02:16:22;;;;;;;6.43;5.82;;;;;;;17.16;100.00;99365.38;5112679;28;20625;-73
2021/07/11 02:18:51;;;;;;;4.40;4.00;;;;;;;17.22;100.00;99370.28;5112434;28;20191;-72
2021/07/11 02:21:21;;;;;;;6.25;5.32;;;;;;;17.17;100.00;99366.28;5111893;28;20266;-74
2021/07/11 02:23:49;;;;;;;5.50;5.00;;;;;;;17.20;100.00;99372.28;5112357;28;20570;-75
2021/07/11 02:26:16;;;;;;;6.50;5.90;;;;;;;17.03;100.00;99376.50;5112155;28;20204;-73
2021/07/11 02:28:42;;;;;;;7.35;6.65;;;;;;;17.00;100.00;99378.63;5111464;28;20278;-74
2021/07/11 02:31:12;;;;;;;7.47;5.90;;;;;;;16.93;100.00;99374.75;5112305;28;20199;-73
2021/07/11 02:33:40;;;;;;;11.25;5.40;;;;;;;16.91;100.00;99376.72;5112145;28;20617;-74
2021/07/11 02:36:12;;;;;;;6.65;5.65;;;;;;;16.97;100.00;99381.63;5112265;28;20210;-74
2021/07/11 02:38:44;;;;;;;5.95;5.45;;;;;;;17.13;100.00;99389.31;5111958;28;20864;-73
2021/07/11 02:41:12;;;;;;;6.65;5.40;;;;;;;17.30;100.00;99388.66;5111886;28;20192;-73
2021/07/11 02:43:42;;;;;;;6.03;4.60;;;;;;;17.39;100.00;99386.94;5111930;28;20634;-73
2021/07/11 02:46:11;;;;;;;6.93;4.28;;;;;;;17.42;100.00;99386.69;5111964;28;20186;-74
2021/07/11 02:48:41;;;;;;;6.10;4.70;;;;;;;17.41;100.00;99382.25;5112290;28;20218;-73
2021/07/11 02:51:12;;;;;;;11.48;4.82;;;;;;;17.45;100.00;99386.41;5111693;28;20215;-73
2021/07/11 02:53:39;;;;;;;8.63;4.63;;;;;;;17.37;100.00;99381.66;5112152;28;20296;-73
2021/07/11 02:56:07;;;;;;;5.90;4.40;;;;;;;17.22;100.00;99385.75;5112105;28;20197;-72
2021/07/11 02:58:36;;;;;;;5.85;4.20;;;;;;;17.29;100.00;99390.50;5092170;28;20192;-73
2021/07/11 03:01:03;;;;;;;5.60;3.88;;;;;;;17.45;100.00;99380.97;5099367;28;20529;-74
2021/07/11 03:03:31;;;;;;;4.47;4.03;;;;;;;17.22;100.00;99386.59;5111492;28;20227;-73
2021/07/11 03:05:58;;;;;;;7.88;4.50;;;;;;;17.25;100.00;99391.81;5111957;28;20194;-73
2021/07/11 03:08:27;;;;;;;4.13;3.50;;;;;;;17.07;100.00;99390.69;5112582;28;20897;-73
2021/07/11 03:10:55;;;;;;;6.43;4.25;;;;;;;16.96;100.00;99391.66;5111711;28;20208;-73
2021/07/11 03:13:22;;;;;;;5.25;4.20;;;;;;;16.62;100.00;99382.81;5111554;28;20191;-73
2021/07/11 03:15:49;;;;;;;7.50;4.25;;;;;;;16.62;100.00;99383.69;5111994;28;20190;-73
2021/07/11 03:18:18;;;;;;;7.43;4.05;;;;;;;16.64;100.00;99387.16;5111459;28;20630;-72
2021/07/11 03:20:48;;;;;;;5.25;4.20;;;;;;;16.45;100.00;99385.13;5111330;28;20199;-73
2021/07/11 03:23:16;;;;;;;4.32;3.92;;;;;;;16.42;100.00;99385.41;5111826;28;20191;-73
2021/07/11 03:25:44;;;;;;;5.60;4.20;;;;;;;16.36;100.00;99385.06;5111860;28;20188;-72
2021/07/11 03:28:10;;;;;;;6.53;4.20;;;;;;;16.34;100.00;99387.91;5111231;28;20192;-72
2021/07/11 03:30:43;;;;;;;7.30;4.50;;;;;;;16.26;100.00;99387.72;5111480;28;20283;-73
2021/07/11 03:33:13;;;;;;;5.30;4.32;;;;;;;16.10;100.00;99387.28;5114710;28;20189;-73
2021/07/11 03:35:46;;;;;;;9.13;4.30;;;;;;;16.15;100.00;99393.22;5115529;28;20199;-74
2021/07/11 03:38:19;;;;;;;5.88;4.55;;;;;;;16.11;100.00;99395.31;5115046;28;20223;-72
2021/07/11 03:40:51;;;;;;;5.82;4.53;;;;;;;15.97;100.00;99401.91;5115113;28;20546;-73
2021/07/11 03:43:23;;;;;;;7.50;4.95;;;;;;;15.97;100.00;99398.31;5114678;28;20282;-75
2021/07/11 03:45:55;;;;;;;9.30;4.97;;;;;;;15.95;100.00;99403.03;5114026;28;20244;-72
2021/07/11 03:48:25;;;;;;;5.45;4.10;;;;;;;15.84;100.00;99395.75;5115617;28;20188;-73
2021/07/11 03:50:53;;;;;;;9.20;3.85;;;;;;;15.72;100.00;99397.66;5115214;28;20197;-73
2021/07/11 03:53:23;;;;;;;8.15;4.43;;;;;;;15.83;100.00;99396.78;5115314;28;20183;-73
2021/07/11 03:55:54;;;;;;;6.13;3.65;;;;;;;15.70;100.00;99394.16;5115049;28;20186;-74
2021/07/11 03:58:21;;;;;;;7.90;4.55;;;;;;;15.78;100.00;99393.53;5115448;28;20195;-73
2021/07/11 04:00:49;;;;;;;6.05;4.22;;;;;;;15.58;100.00;99403.31;5113954;28;20260;-74
2021/07/11 04:03:17;;;;;;;5.47;4.03;;;;;;;15.71;100.00;99397.75;5114605;28;20227;-73
2021/07/11 04:05:45;;;;;;;7.18;4.55;;;;;;;15.71;100.00;99398.63;5114672;28;20197;-73
2021/07/11 04:08:15;;;;;;;7.10;4.57;;;;;;;15.77;100.00;99405.41;5114666;28;20278;-73
2021/07/11 04:10:42;;;;;;;7.18;4.38;;;;;;;15.71;100.00;99403.19;5114778;28;20195;-72
2021/07/11 04:13:11;;;;;;;8.30;5.13;;;;;;;15.61;100.00;99409.34;5115078;28;20187;-73
2021/07/11 04:15:38;;;;;;;6.25;4.82;;;;;;;15.67;100.00;99402.56;5114886;28;20190;-73
2021/07/11 04:18:11;;;;;;;5.25;4.30;;;;;;;15.71;100.00;99408.63;5114938;28;20773;-72
2021/07/11 04:20:42;;;;;;;6.38;4.22;;;;;;;15.81;100.00;99409.59;5114702;28;20278;-72
2021/07/11 04:23:30;;;;;;;5.10;4.25;;;;;;;15.82;100.00;99412.16;5114869;28;20266;-73
2021/07/11 04:25:58;;;;;;;7.00;4.10;;;;;;;15.91;100.00;99415.13;5092019;28;20203;-73
2021/07/11 04:28:29;;;;;;;4.65;4.13;;;;;;;16.01;100.00;99410.66;5114530;28;20195;-72
2021/07/11 04:30:59;;;;;;;4.55;3.80;;;;;;;16.05;100.00;99413.00;5113869;28;20210;-74
2021/07/11 04:33:26;;;;;;;6.35;4.55;;;;;;;16.17;100.00;99411.09;5114270;28;20803;-74
2021/07/11 04:35:52;;;;;;;8.85;4.30;;;;;;;16.17;100.00;99424.66;5113699;28;20287;-73
2021/07/11 04:38:19;;;;;;;8.60;5.43;;;;;;;16.34;100.00;99419.66;5114003;28;20187;-73
2021/07/11 04:40:46;;;;;;;6.75;4.10;;;;;;;16.47;98.67;99415.75;5114252;28;20209;-75
2021/07/11 04:43:15;;;;;;;6.18;4.05;;;;;;;16.53;99.10;99422.53;5113522;28;20274;-74
2021/07/11 04:45:43;;;;;;;10.40;4.40;;;;;;;16.71;99.83;99422.81;5114280;28;20192;-74
2021/07/11 04:48:10;;;;;;;5.90;4.00;;;;;;;16.55;98.56;99417.84;5114436;28;20237;-74
2021/07/11 04:50:36;;;;;;;7.22;4.05;;;;;;;16.88;97.20;99421.38;5114179;28;20961;-73
2021/07/11 04:53:03;;;;;;;7.88;3.92;;;;;;;17.05;94.80;99417.19;5114295;28;20195;-74
2021/07/11 04:55:30;;;;;;;9.05;4.82;;;;;;;17.13;93.87;99420.06;5114052;28;20274;-74
2021/07/11 04:57:56;;;;;;;11.23;4.88;;;;;;;17.04;93.77;99426.31;5113756;28;20195;-73
2021/07/11 05:00:23;;;;;;;4.65;3.60;;;;;;;16.92;93.36;99428.28;5113843;28;20293;-73
2021/07/11 05:02:51;;;;;;;8.13;4.40;;;;;;;16.76;95.07;99423.28;5114055;28;20605;-73
2021/07/11 05:05:18;;;;;;;9.77;4.63;;;;;;;16.60;95.96;99428.31;5113933;28;20202;-73
2021/07/11 05:07:46;;;;;;;4.53;3.97;;;;;;;16.49;97.37;99433.81;5113375;28;20186;-74
2021/07/11 05:10:12;;;;;;;6.70;4.30;;;;;;;16.72;95.95;99435.41;5105784;28;20198;-73
2021/07/11 05:12:39;;;;;;;9.93;4.03;;;;;;;16.88;95.15;99433.09;5113260;28;20221;-72
2021/07/11 05:15:08;;;;;;;3.78;3.47;;;;;;;17.00;93.53;99433.03;5113080;28;20187;-73
2021/07/11 05:17:35;;;;;;;7.53;3.75;;;;;;;17.11;94.10;99424.78;5123021;27;20203;-73
2021/07/11 05:20:05;;;;;;;4.95;3.92;;;;;;;17.16;91.67;99432.53;5113811;28;20227;-73
2021/07/11 05:22:32;;;;;;;4.28;3.55;;;;;;;17.18;92.81;99427.84;5113468;28;20540;-72
2021/07/11 05:24:58;;;;;;;6.82;3.80;;;;;;;17.40;91.01;99426.78;5113582;28;20198;-73
2021/07/11 05:27:27;;;;;;;7.43;4.32;;;;;;;17.30;91.57;99433.06;5113435;28;20687;-74
2021/07/11 05:29:53;;;;;;;4.32;3.92;;;;;;;17.09;92.81;99434.94;5113513;28;22078;-74
2021/07/11 05:32:20;;;;;;;7.18;4.28;;;;;;;17.27;91.54;99440.63;5112536;28;20220;-73
2021/07/11 05:34:46;;;;;;;11.43;3.85;;;;;;;17.30;91.99;99445.81;5113451;28;20279;-72
2021/07/11 05:37:14;;;;;;;6.60;3.80;;;;;;;17.33;89.54;99442.81;5113383;28;20189;-73
2021/07/11 05:39:41;;;;;;;5.32;4.40;;;;;;;17.28;89.95;99439.63;5116022;27;20244;-73
2021/07/11 05:42:08;;;;;;;5.90;4.05;;;;;;;17.09;91.50;99443.09;5112597;28;20188;-73
2021/07/11 05:44:36;;;;;;;6.18;4.15;;;;;;;17.38;90.04;99435.09;5112513;28;20280;-72
2021/07/11 05:47:06;;;;;;;6.38;3.90;;;;;;;17.60;88.77;99434.03;5112529;28;20203;-72
2021/07/11 05:49:32;;;;;;;4.20;3.80;;;;;;;17.25;90.20;99446.22;5112397;28;20248;-72
2021/07/11 05:52:00;;;;;;;6.82;3.95;;;;;;;17.17;90.74;99439.72;5112637;28;20212;-72
2021/07/11 05:54:28;;;;;;;5.38;3.85;;;;;;;17.24;89.43;99446.34;5112573;28;20196;-73
2021/07/11 05:56:54;;;;;;;6.28;3.85;;;;;;;17.51;88.73;99443.88;5112375;28;20184;-75
2021/07/11 05:59:21;;;;;;;3.92;3.42;;;;;;;17.60;87.40;99446.78;5112081;28;20194;-73
2021/07/11 06:01:47;;;;;;;5.40;3.92;;;;;;;17.36;87.64;99452.56;5112539;28;20297;-74
2021/07/11 06:04:14;;;;;;;4.47;3.42;;;;;;;17.36;89.24;99455.28;5112298;28;20242;-74
2021/07/11 06:06:40;;;;;;;8.57;4.32;;;;;;;17.49;87.98;99453.19;5112165;28;20573;-74
2021/07/11 06:09:07;;;;;;;4.65;3.60;;;;;;;17.27;89.24;99443.34;5112272;28;20187;-75
2021/07/11 06:11:35;;;;;;;8.05;4.57;;;;;;;17.42;88.55;99443.84;5111823;28;20185;-75
2021/07/11 06:14:02;;;;;;;7.95;4.65;;;;;;;17.24;86.95;99443.63;5112177;28;20192;-75
2021/07/11 06:16:28;;;;;;;9.75;4.68;;;;;;;17.37;87.40;99443.41;5112105;28;20184;-72
2021/07/11 06:18:55;;;;;;;5.80;4.60;;;;;;;17.63;85.97;99450.06;5112473;28;20196;-72
2021/07/11 06:21:21;;;;;;;7.75;4.95;;;;;;;17.90;85.69;99452.19;5112640;28;20598;-73
2021/07/11 06:23:48;;;;;;;4.85;4.38;;;;;;;17.59;84.57;99458.66;5112270;28;20185;-73
2021/07/11 06:26:15;;;;;;;4.68;4.25;;;;;;;17.76;85.32;99454.44;5112363;28;20283;-73
2021/07/11 06:28:43;;;;;;;6.70;5.10;;;;;;;17.90;84.25;99456.78;5111934;28;20209;-72
2021/07/11 06:31:09;;;;;;;6.13;5.00;;;;;;;17.82;84.99;99464.78;5111976;28;20285;-74
2021/07/11 06:33:36;;;;;;;8.30;5.72;;;;;;;17.78;84.44;99469.63;5112544;28;20304;-74
2021/07/11 06:36:03;;;;;;;6.90;5.43;;;;;;;17.76;84.77;99468.06;5111939;28;20201;-73
2021/07/11 06:38:29;;;;;;;9.80;7.82;;;;;;;18.07;82.17;99468.91;5115946;27;20200;-73
2021/07/11 06:40:56;;;;;;;8.65;7.78;;;;;;;18.06;81.47;99467.16;5133111;27;20646;-73
2021/07/11 06:43:23;;;;;;;11.70;10.02;;;;;;;18.08;81.13;99474.19;5133213;28;20186;-73
2021/07/11 06:45:51;;;;;;;15.50;10.95;;;;;;;18.20;80.72;99472.19;5114252;28;20691;-74
2021/07/11 06:48:17;;;;;;;11.30;8.35;;;;;;;18.42;79.87;99468.34;5112493;28;20656;-73
2021/07/11 06:50:45;;;;;;;14.93;9.57;;;;;;;18.61;77.96;99458.44;5112523;28;20186;-73
2021/07/11 06:53:12;;;;;;;10.45;8.85;;;;;;;18.56;78.33;99469.78;5112280;28;20577;-73
2021/07/11 06:55:39;;;;;;;8.85;6.68;;;;;;;18.65;75.62;99465.34;5112389;28;20276;-74
2021/07/11 06:58:05;;;;;;;10.50;8.90;;;;;;;18.37;75.68;99473.38;5112584;28;20222;-74
2021/07/11 07:00:32;;;;;;;12.80;11.40;;;;;;;18.41;76.57;99473.97;5112049;28;20199;-72
2021/07/11 07:03:00;;;;;;;19.55;14.40;;;;;;;18.41;76.38;99466.63;5112300;28;20233;-73
2021/07/11 07:05:26;;;;;;;22.75;16.40;;;;;;;18.37;77.57;99469.78;5112416;28;20270;-73
2021/07/11 07:07:53;;;;;;;15.43;12.85;;;;;;;18.66;76.03;99469.81;5115404;28;20198;-74
2021/07/11 07:10:20;;;;;;;13.95;12.38;;;;;;;18.69;76.63;99464.91;5116286;28;20192;-73
2021/07/11 07:12:46;;;;;;;14.27;12.38;;;;;;;18.86;76.47;99474.25;5115853;28;20226;-73
2021/07/11 07:15:14;;;;;;;14.82;11.30;;;;;;;18.96;75.26;99476.97;5116494;28;20501;-73
2021/07/11 07:17:40;;;;;;;15.48;13.68;;;;;;;19.46;73.77;99478.56;5115973;28;20201;-73
2021/07/11 07:20:14;;;;;;;9.60;8.35;;;;;;;19.75;72.78;99476.63;5116191;28;20636;-73
2021/07/11 07:22:40;;;;;;;12.02;9.10;;;;;;;20.23;70.84;99477.34;5116208;28;20191;-73
2021/07/11 07:25:10;;;;;;;14.13;9.57;;;;;;;20.23;70.71;99471.88;5116066;28;20199;-73
2021/07/11 07:27:37;;;;;;;8.37;5.80;;;;;;;19.78;69.85;99480.91;5115744;28;20512;-73
2021/07/11 07:30:05;;;;;;;5.57;4.83;;;;;;;19.64;69.79;99475.91;5116062;28;20530;-73
2021/07/11 07:32:31;;;;;;;5.70;4.77;;;;;;;19.46;71.24;99471.25;5115572;28;20473;-74
2021/07/11 07:34:58;;;;;;;5.95;5.35;;;;;;;19.25;72.28;99465.16;5115895;28;20516;-73
2021/07/11 07:37:26;;;;;;;6.80;6.10;;;;;;;19.15;73.21;99473.34;5115922;28;20179;-73
2021/07/11 07:39:52;;;;;;;7.45;5.95;;;;;;;19.18;72.29;99470.34;5115816;28;20204;-74
2021/07/11 07:42:19;;;;;;;8.93;6.70;;;;;;;19.01;73.07;99468.34;5115819;28;20179;-73
2021/07/11 07:44:46;;;;;;;7.05;6.35;;;;;;;19.31;71.80;99479.06;5115711;28;20286;-74
2021/07/11 07:47:13;;;;;;;8.13;7.20;;;;;;;19.92;70.55;99471.34;5115155;28;20209;-73
2021/07/11 07:49:39;;;;;;;8.40;7.32;;;;;;;20.37;68.55;99474.09;5115453;28;20501;-74
2021/07/11 07:52:06;;;;;;;8.25;6.68;;;;;;;20.69;66.23;99474.59;5115344;28;20539;-74
2021/07/11 07:54:34;;;;;;;9.57;6.70;;;;;;;20.27;68.23;99472.44;5115246;28;20649;-74
2021/07/11 07:57:01;;;;;;;8.43;7.47;;;;;;;21.08;66.33;99477.84;5115266;28;20655;-74
2021/07/11 07:59:27;;;;;;;8.53;6.67;;;;;;;21.29;64.62;99476.59;5115645;28;20461;-72
2021/07/11 08:01:54;;;;;;;11.63;7.80;;;;;;;21.04;66.33;99473.69;5115291;28;20443;-73
2021/07/11 08:04:21;;;;;;;8.67;7.40;;;;;;;20.92;66.37;99475.84;5114875;28;20465;-73
2021/07/11 08:06:48;;;;;;;6.73;5.63;;;;;;;20.78;66.80;99482.72;5115390;28;20425;-73
2021/07/11 08:09:16;;;;;;;5.87;5.33;;;;;;;20.75;67.07;99476.69;5115141;28;20441;-74
2021/07/11 08:11:44;;;;;;;6.17;5.33;;;;;;;20.73;67.71;99476.00;5115043;28;20515;-73
2021/07/11 08:14:11;;;;;;;5.47;4.73;;;;;;;20.96;66.10;99471.75;5115127;28;20834;-73
2021/07/11 08:16:38;;;;;;;8.00;5.17;;;;;;;20.26;68.07;99477.06;5114665;28;20436;-74
2021/07/11 08:19:05;;;;;;;5.57;5.07;;;;;;;20.35;67.19;99473.41;5113664;28;20792;-73
2021/07/11 08:21:32;;;;;;;5.57;5.07;;;;;;;20.61;66.21;99481.69;5114709;28;20425;-74
2021/07/11 08:23:58;;;;;;;6.40;4.90;;;;;;;21.19;64.94;99480.31;5114921;28;20428;-74
2021/07/11 08:26:25;;;;;;;5.20;4.33;;;;;;;21.11;63.50;99484.88;5114866;28;20445;-74
2021/07/11 08:28:52;;;;;;;8.50;5.67;;;;;;;20.61;65.43;99486.31;5114929;28;20773;-74
2021/07/11 08:31:19;;;;;;;6.27;5.33;;;;;;;21.08;64.11;99487.94;5114734;28;20562;-73
2021/07/11 08:33:46;;;;;;;9.43;5.90;;;;;;;21.62;62.23;99477.69;5114265;28;20572;-73
2021/07/11 08:36:13;;;;;;;5.60;5.00;;;;;;;21.21;62.42;99477.38;5114737;28;20758;-74
2021/07/11 08:38:39;;;;;;;5.33;4.70;;;;;;;20.95;64.26;99480.97;5114668;28;20439;-73
2021/07/11 08:41:06;;;;;;;8.37;4.40;;;;;;;20.82;63.71;99481.38;5114220;28;20512;-74
2021/07/11 08:43:33;;;;;;;6.87;5.33;;;;;;;20.71;64.76;99481.63;5126938;27;20435;-74
2021/07/11 08:46:01;;;;;;;9.90;6.10;;;;;;;21.56;62.21;99483.81;5134527;27;20443;-74
2021/07/11 08:48:27;;;;;;;5.37;4.50;;;;;;;21.48;61.55;99484.63;5135082;27;20435;-73
2021/07/11 08:51:01;;;;;;;4.70;4.20;;;;;;;22.07;60.33;99485.59;5134474;27;20439;-74
2021/07/11 08:53:28;;;;;;;5.60;4.40;;;;;;;22.90;57.41;99481.16;5134814;27;20467;-72
2021/07/11 08:55:54;;;;;;;6.47;4.90;;;;;;;23.09;56.78;99488.22;5134929;27;20918;-73
2021/07/11 08:58:21;;;;;;;4.97;4.50;;;;;;;22.95;57.07;99494.34;5134309;27;20455;-74
2021/07/11 09:00:48;;;;;;;6.33;3.70;;;;;;;23.37;56.12;99499.69;5134793;27;20436;-73
2021/07/11 09:03:16;;;;;;;4.60;4.03;;;;;;;23.25;56.04;99495.59;5134313;27;20555;-73
2021/07/11 09:05:43;;;;;;;4.40;4.00;;;;;;;22.25;57.98;99495.63;5134453;27;20920;-73
2021/07/11 09:08:13;;;;;;;4.10;3.50;;;;;;;21.46;60.41;99492.16;5134647;27;20531;-73
2021/07/11 09:10:42;;;;;;;4.70;4.30;;;;;;;21.43;60.86;99501.53;5134775;27;20555;-75
2021/07/11 09:13:12;;;;;;;3.50;3.20;;;;;;;21.48;60.97;99495.56;5134072;27;20475;-74
2021/07/11 09:15:39;;;;;;;3.70;2.90;;;;;;;22.41;58.62;99500.28;5134451;27;20473;-73
2021/07/11 09:18:06;;;;;;;3.47;3.17;;;;;;;22.47;59.03;99494.97;5133940;27;20448;-74
2021/07/11 09:20:49;;;;;;;5.93;3.20;;;;;;;22.41;57.33;99501.16;5126412;27;20453;-72
2021/07/11 09:23:16;;;;;;;5.13;2.63;;;;;;;22.08;56.95;99495.53;5113216;28;20432;-73
2021/07/11 09:25:42;;;;;;;2.90;2.60;;;;;;;21.26;60.20;99491.47;5113521;28;21229;-73
2021/07/11 09:28:12;;;;;;;3.40;3.10;;;;;;;21.74;59.39;99501.03;5113172;28;21160;-74
2021/07/11 09:30:38;;;;;;;5.33;3.27;;;;;;;22.69;55.84;99501.72;5104297;28;20880;-74
2021/07/11 09:33:05;;;;;;;5.87;3.03;;;;;;;23.75;52.87;99494.47;5113036;28;20972;-74
2021/07/11 09:35:31;;;;;;;2.70;2.20;;;;;;;24.17;49.77;99498.75;5112735;28;20440;-74
2021/07/11 09:37:59;;;;;;;4.33;3.40;;;;;;;24.32;48.95;99505.22;5113085;28;20433;-74
2021/07/11 09:40:27;;;;;;;6.13;3.00;;;;;;;24.54;49.38;99502.75;5112683;28;20831;-75
2021/07/11 09:42:55;;;;;;;3.23;2.27;;;;;;;23.83;51.85;99507.31;5112564;28;20489;-74
2021/07/11 09:45:23;;;;;;;3.13;2.80;;;;;;;23.93;52.38;99500.59;5112538;28;20437;-72
2021/07/11 09:47:52;;;;;;;3.60;3.30;;;;;;;24.46;51.09;99502.75;5114191;27;20482;-75
2021/07/11 09:50:21;;;;;;;2.90;2.60;;;;;;;23.84;54.03;99503.56;5108957;28;20447;-74
2021/07/11 09:52:49;;;;;;;3.20;2.90;;;;;;;22.79;57.54;99507.03;5112441;28;20490;-75
2021/07/11 09:55:19;;;;;;;3.70;3.40;;;;;;;22.24;59.91;99504.88;5112473;28;20907;-73
2021/07/11 09:57:48;;;;;;;3.60;3.30;;;;;;;21.73;61.35;99504.81;5109605;28;20426;-73
2021/07/11 10:00:18;;;;;;;6.63;3.90;;;;;;;21.90;61.00;99513.13;5112487;28;20982;-73
2021/07/11 10:02:46;;;;;;;4.50;3.60;;;;;;;21.65;62.24;99505.63;5111996;28;20485;-73
2021/07/11 10:05:13;;;;;;;3.50;3.03;;;;;;;21.38;62.48;99505.75;5112432;28;20801;-74
2021/07/11 10:07:41;;;;;;;5.30;3.53;;;;;;;21.40;63.16;99509.19;5112403;28;20812;-75
2021/07/11 10:10:10;;;;;;;3.70;3.40;;;;;;;22.17;59.87;99501.91;5112525;28;20425;-73
2021/07/11 10:12:39;;;;;;;3.60;3.30;;;;;;;22.16;60.22;99500.22;5112407;28;20559;-74
2021/07/11 10:15:11;;;;;;;3.93;3.63;;;;;;;22.40;58.09;99498.59;5112352;28;20437;-74
2021/07/11 10:17:39;;;;;;;4.83;2.97;;;;;;;22.44;57.16;99503.56;5111782;28;20476;-73
2021/07/11 10:20:07;;;;;;;10.43;3.60;;;;;;;22.86;56.41;99497.13;5112417;28;20432;-74
2021/07/11 10:22:41;;;;;;;3.50;3.20;;;;;;;23.31;55.79;99504.00;5111774;28;20528;-73
2021/07/11 10:25:12;;;;;;;3.40;3.10;;;;;;;23.08;55.79;99494.72;5112213;28;20767;-73
2021/07/11 10:27:40;;;;;;;3.80;3.50;;;;;;;22.39;57.76;99494.13;5112246;28;20520;-74
2021/07/11 10:30:08;;;;;;;3.47;3.17;;;;;;;22.47;57.96;99497.72;5112330;28;20552;-74
2021/07/11 10:32:35;;;;;;;3.50;3.20;;;;;;;22.41;57.76;99494.78;5112311;28;20455;-74
2021/07/11 10:35:14;;;;;;;3.33;3.03;;;;;;;22.62;56.03;99492.44;5112300;28;20464;-73
2021/07/11 10:37:53;;;;;;;6.40;3.77;;;;;;;22.74;57.18;99492.13;5111879;28;20516;-74
2021/07/11 10:40:22;;;;;;;4.23;3.50;;;;;;;22.65;58.51;99489.34;5111681;28;20961;-74
2021/07/11 10:42:52;;;;;;;4.07;3.70;;;;;;;21.69;61.75;99486.13;5111224;28;20427;-74
2021/07/11 10:45:20;;;;;;;5.73;4.20;;;;;;;21.70;62.00;99490.56;5112076;28;20447;-74
2021/07/11 10:47:47;;;;;;;6.60;4.50;;;;;;;21.77;62.06;99495.22;5111344;28;20425;-73
2021/07/11 10:50:26;;;;;;;4.67;4.27;;;;;;;21.57;62.33;99489.16;5111297;28;20433;-73
2021/07/11 10:52:54;;;;;;;4.80;4.30;;;;;;;21.78;61.57;99486.00;5111539;28;20448;-74
2021/07/11 10:55:21;;;;;;;5.73;4.30;;;;;;;22.01;61.38;99480.78;5111936;28;20432;-74
2021/07/11 10:57:47;;;;;;;5.30;4.10;;;;;;;22.19;60.05;99475.19;5111272;28;20446;-74
2021/07/11 11:00:18;;;;;;;5.47;4.13;;;;;;;22.33;60.71;99478.34;5111451;28;20786;-73
2021/07/11 11:02:47;;;;;;;4.03;3.63;;;;;;;22.06;60.15;99478.38;5110728;28;20535;-73
2021/07/11 11:05:17;;;;;;;7.33;4.50;;;;;;;22.09;60.51;99477.19;5111500;28;20429;-74
2021/07/11 11:07:46;;;;;;;4.03;2.97;;;;;;;22.43;58.55;99476.28;5110976;28;20766;-72
2021/07/11 11:10:21;;;;;;;4.63;3.57;;;;;;;22.78;57.82;99468.81;5111278;28;20440;-73
2021/07/11 11:13:03;;;;;;;4.53;3.70;;;;;;;23.05;56.81;99468.47;5110953;28;20428;-73
2021/07/11 11:15:36;;;;;;;5.00;3.90;;;;;;;22.97;57.03;99468.44;5110389;28;20433;-73
2021/07/11 11:18:24;;;;;;;3.80;3.50;;;;;;;22.99;55.17;99460.91;5110658;28;20433;-75
2021/07/11 11:20:57;;;;;;;3.53;3.07;;;;;;;23.16;54.19;99463.69;5109866;28;20429;-73
2021/07/11 11:23:25;;;;;;;3.90;3.60;;;;;;;22.92;55.45;99450.78;5111029;28;20436;-73
2021/07/11 11:25:53;;;;;;;3.50;2.57;;;;;;;22.92;53.49;99453.53;5110169;28;20793;-73
2021/07/11 11:28:30;;;;;;;3.90;2.87;;;;;;;22.62;54.65;99456.78;5107434;28;20423;-73
2021/07/11 11:31:17;;;;;;;4.80;3.20;;;;;;;22.44;55.44;99454.19;5110762;28;20811;-73
2021/07/11 11:33:52;;;;;;;2.67;2.47;;;;;;;22.52;55.72;99456.06;5111232;28;20465;-74